sensor_id;sensor_type;location;lat;lon;timestamp;P1;durP1;ratioP1;P2;durP2;ratioP2
14118;SDS011;7138;49.246;9.100;2023-03-03T00:00:30;41.88;;;21.60;;
14118;SDS011;7138;49.246;9.100;2023-03-03T00:02:56;42.35;;;20.50;;
14118;SDS011;7138;49.246;9.100;2023-03-03T00:05:30;39.60;;;20.13;;
14118;SDS011;7138;49.246;9.100;2023-03-03T00:07:57;45.92;;;21.77;;
14118;SDS011;7138;49.246;9.100;2023-03-03T00:10:23;41.30;;;21.27;;
14118;SDS011;7138;49.246;9.100;2023-03-03T00:12:50;41.88;;;20.70;;
14118;SDS011;7138;49.246;9.100;2023-03-03T00:15:18;45.05;;;22.02;;
14118;SDS011;7138;49.246;9.100;2023-03-03T00:17:47;41.28;;;20.98;;
14118;SDS011;7138;49.246;9.100;2023-03-03T00:20:26;42.40;;;21.83;;
14118;SDS011;7138;49.246;9.100;2023-03-03T00:23:05;46.08;;;22.05;;
14118;SDS011;7138;49.246;9.100;2023-03-03T00:25:53;42.58;;;20.80;;
14118;SDS011;7138;49.246;9.100;2023-03-03T00:28:22;45.97;;;21.50;;
14118;SDS011;7138;49.246;9.100;2023-03-03T00:30:53;43.45;;;21.08;;
14118;SDS011;7138;49.246;9.100;2023-03-03T00:33:24;39.72;;;20.92;;
14118;SDS011;7138;49.246;9.100;2023-03-03T00:35:58;41.47;;;20.98;;
14118;SDS011;7138;49.246;9.100;2023-03-03T00:38:51;43.33;;;22.10;;
14118;SDS011;7138;49.246;9.100;2023-03-03T00:41:21;43.90;;;21.58;;
14118;SDS011;7138;49.246;9.100;2023-03-03T00:43:50;43.70;;;22.08;;
14118;SDS011;7138;49.246;9.100;2023-03-03T00:46:19;43.88;;;21.35;;
14118;SDS011;7138;49.246;9.100;2023-03-03T00:48:47;42.53;;;19.42;;
14118;SDS011;7138;49.246;9.100;2023-03-03T00:54:00;43.83;;;19.95;;
14118;SDS011;7138;49.246;9.100;2023-03-03T00:56:27;40.80;;;20.58;;
14118;SDS011;7138;49.246;9.100;2023-03-03T00:58:52;35.90;;;18.85;;
14118;SDS011;7138;49.246;9.100;2023-03-03T01:01:20;39.05;;;18.77;;
14118;SDS011;7138;49.246;9.100;2023-03-03T01:03:46;42.47;;;20.80;;
14118;SDS011;7138;49.246;9.100;2023-03-03T01:06:12;41.72;;;21.27;;
14118;SDS011;7138;49.246;9.100;2023-03-03T01:08:39;43.38;;;20.48;;
14118;SDS011;7138;49.246;9.100;2023-03-03T01:11:06;40.03;;;19.50;;
14118;SDS011;7138;49.246;9.100;2023-03-03T01:13:40;40.38;;;19.80;;
14118;SDS011;7138;49.246;9.100;2023-03-03T01:16:09;41.33;;;19.40;;
14118;SDS011;7138;49.246;9.100;2023-03-03T01:18:37;41.05;;;19.40;;
14118;SDS011;7138;49.246;9.100;2023-03-03T01:23:31;36.05;;;18.52;;
14118;SDS011;7138;49.246;9.100;2023-03-03T01:25:57;40.45;;;19.50;;
14118;SDS011;7138;49.246;9.100;2023-03-03T01:28:23;39.03;;;18.75;;
14118;SDS011;7138;49.246;9.100;2023-03-03T01:30:49;32.10;;;17.10;;
14118;SDS011;7138;49.246;9.100;2023-03-03T01:33:15;35.28;;;17.83;;
14118;SDS011;7138;49.246;9.100;2023-03-03T01:35:43;44.63;;;18.88;;
14118;SDS011;7138;49.246;9.100;2023-03-03T01:38:10;40.00;;;19.25;;
14118;SDS011;7138;49.246;9.100;2023-03-03T01:40:36;35.08;;;16.85;;
14118;SDS011;7138;49.246;9.100;2023-03-03T01:43:02;34.78;;;17.55;;
14118;SDS011;7138;49.246;9.100;2023-03-03T01:45:29;35.60;;;17.92;;
14118;SDS011;7138;49.246;9.100;2023-03-03T01:48:28;33.35;;;16.95;;
14118;SDS011;7138;49.246;9.100;2023-03-03T01:50:59;33.95;;;17.17;;
14118;SDS011;7138;49.246;9.100;2023-03-03T01:53:29;35.78;;;17.40;;
14118;SDS011;7138;49.246;9.100;2023-03-03T01:56:06;31.05;;;16.42;;
14118;SDS011;7138;49.246;9.100;2023-03-03T01:58:34;32.33;;;16.50;;
14118;SDS011;7138;49.246;9.100;2023-03-03T02:01:04;33.70;;;16.90;;
14118;SDS011;7138;49.246;9.100;2023-03-03T02:03:38;37.47;;;17.40;;
14118;SDS011;7138;49.246;9.100;2023-03-03T02:06:08;38.83;;;17.52;;
14118;SDS011;7138;49.246;9.100;2023-03-03T02:08:41;34.55;;;16.55;;
14118;SDS011;7138;49.246;9.100;2023-03-03T02:11:16;38.80;;;17.60;;
14118;SDS011;7138;49.246;9.100;2023-03-03T02:13:45;33.50;;;16.58;;
14118;SDS011;7138;49.246;9.100;2023-03-03T02:18:46;34.72;;;16.38;;
14118;SDS011;7138;49.246;9.100;2023-03-03T02:21:14;30.20;;;15.15;;
14118;SDS011;7138;49.246;9.100;2023-03-03T02:23:47;32.95;;;14.45;;
14118;SDS011;7138;49.246;9.100;2023-03-03T02:26:24;30.67;;;15.35;;
14118;SDS011;7138;49.246;9.100;2023-03-03T02:28:53;29.00;;;14.20;;
14118;SDS011;7138;49.246;9.100;2023-03-03T02:31:20;31.98;;;16.15;;
14118;SDS011;7138;49.246;9.100;2023-03-03T02:33:48;31.38;;;15.73;;
14118;SDS011;7138;49.246;9.100;2023-03-03T02:36:18;30.88;;;14.68;;
14118;SDS011;7138;49.246;9.100;2023-03-03T02:38:47;27.77;;;14.18;;
14118;SDS011;7138;49.246;9.100;2023-03-03T02:41:27;32.70;;;14.73;;
14118;SDS011;7138;49.246;9.100;2023-03-03T02:43:59;26.67;;;13.13;;
14118;SDS011;7138;49.246;9.100;2023-03-03T02:46:31;31.50;;;14.82;;
14118;SDS011;7138;49.246;9.100;2023-03-03T02:48:59;27.00;;;13.23;;
14118;SDS011;7138;49.246;9.100;2023-03-03T02:51:26;25.02;;;13.35;;
14118;SDS011;7138;49.246;9.100;2023-03-03T02:53:52;28.52;;;14.20;;
14118;SDS011;7138;49.246;9.100;2023-03-03T02:56:18;27.45;;;12.77;;
14118;SDS011;7138;49.246;9.100;2023-03-03T02:58:45;27.65;;;12.60;;
14118;SDS011;7138;49.246;9.100;2023-03-03T03:01:11;26.20;;;12.60;;
14118;SDS011;7138;49.246;9.100;2023-03-03T03:03:36;30.77;;;13.13;;
14118;SDS011;7138;49.246;9.100;2023-03-03T03:06:02;27.15;;;13.10;;
14118;SDS011;7138;49.246;9.100;2023-03-03T03:08:29;27.27;;;13.75;;
14118;SDS011;7138;49.246;9.100;2023-03-03T03:10:55;30.58;;;14.65;;
14118;SDS011;7138;49.246;9.100;2023-03-03T03:13:21;27.45;;;13.70;;
14118;SDS011;7138;49.246;9.100;2023-03-03T03:15:49;29.35;;;14.20;;
14118;SDS011;7138;49.246;9.100;2023-03-03T03:18:16;28.13;;;13.27;;
14118;SDS011;7138;49.246;9.100;2023-03-03T03:20:42;25.35;;;13.05;;
14118;SDS011;7138;49.246;9.100;2023-03-03T03:23:10;27.08;;;12.70;;
14118;SDS011;7138;49.246;9.100;2023-03-03T03:25:37;25.58;;;12.43;;
14118;SDS011;7138;49.246;9.100;2023-03-03T03:28:09;26.60;;;12.90;;
14118;SDS011;7138;49.246;9.100;2023-03-03T03:30:35;25.77;;;12.68;;
14118;SDS011;7138;49.246;9.100;2023-03-03T03:33:02;26.98;;;11.75;;
14118;SDS011;7138;49.246;9.100;2023-03-03T03:35:28;25.17;;;11.30;;
14118;SDS011;7138;49.246;9.100;2023-03-03T03:37:54;22.70;;;11.55;;
14118;SDS011;7138;49.246;9.100;2023-03-03T03:40:20;23.85;;;11.27;;
14118;SDS011;7138;49.246;9.100;2023-03-03T03:42:46;25.38;;;12.85;;
14118;SDS011;7138;49.246;9.100;2023-03-03T03:45:12;25.05;;;11.95;;
14118;SDS011;7138;49.246;9.100;2023-03-03T03:47:39;28.27;;;11.77;;
14118;SDS011;7138;49.246;9.100;2023-03-03T03:50:07;22.92;;;11.75;;
14118;SDS011;7138;49.246;9.100;2023-03-03T03:52:34;22.90;;;12.00;;
14118;SDS011;7138;49.246;9.100;2023-03-03T03:55:00;23.25;;;11.63;;
14118;SDS011;7138;49.246;9.100;2023-03-03T03:57:26;26.70;;;11.93;;
14118;SDS011;7138;49.246;9.100;2023-03-03T03:59:52;26.40;;;11.73;;
14118;SDS011;7138;49.246;9.100;2023-03-03T04:02:18;21.83;;;10.82;;
14118;SDS011;7138;49.246;9.100;2023-03-03T04:04:44;24.13;;;11.18;;
14118;SDS011;7138;49.246;9.100;2023-03-03T04:07:11;25.67;;;11.77;;
14118;SDS011;7138;49.246;9.100;2023-03-03T04:09:37;20.85;;;10.73;;
14118;SDS011;7138;49.246;9.100;2023-03-03T04:12:03;23.10;;;10.98;;
14118;SDS011;7138;49.246;9.100;2023-03-03T04:14:29;26.23;;;12.00;;
14118;SDS011;7138;49.246;9.100;2023-03-03T04:16:55;23.85;;;11.80;;
14118;SDS011;7138;49.246;9.100;2023-03-03T04:19:21;21.40;;;10.70;;
14118;SDS011;7138;49.246;9.100;2023-03-03T04:21:47;20.65;;;10.88;;
14118;SDS011;7138;49.246;9.100;2023-03-03T04:24:14;23.67;;;11.48;;
14118;SDS011;7138;49.246;9.100;2023-03-03T04:26:43;24.00;;;10.55;;
14118;SDS011;7138;49.246;9.100;2023-03-03T04:29:09;25.30;;;11.43;;
14118;SDS011;7138;49.246;9.100;2023-03-03T04:31:35;24.25;;;11.25;;
14118;SDS011;7138;49.246;9.100;2023-03-03T04:34:01;22.88;;;11.10;;
14118;SDS011;7138;49.246;9.100;2023-03-03T04:36:27;20.98;;;10.32;;
14118;SDS011;7138;49.246;9.100;2023-03-03T04:38:53;24.33;;;11.25;;
14118;SDS011;7138;49.246;9.100;2023-03-03T04:41:20;23.42;;;11.27;;
14118;SDS011;7138;49.246;9.100;2023-03-03T04:43:46;21.20;;;11.20;;
14118;SDS011;7138;49.246;9.100;2023-03-03T04:46:12;22.92;;;10.73;;
14118;SDS011;7138;49.246;9.100;2023-03-03T04:48:38;24.73;;;11.57;;
14118;SDS011;7138;49.246;9.100;2023-03-03T04:51:04;23.90;;;11.65;;
14118;SDS011;7138;49.246;9.100;2023-03-03T04:53:30;23.38;;;11.48;;
14118;SDS011;7138;49.246;9.100;2023-03-03T04:55:56;20.17;;;10.00;;
14118;SDS011;7138;49.246;9.100;2023-03-03T04:58:23;21.25;;;10.77;;
14118;SDS011;7138;49.246;9.100;2023-03-03T05:00:52;23.45;;;11.70;;
14118;SDS011;7138;49.246;9.100;2023-03-03T05:03:20;23.33;;;11.18;;
14118;SDS011;7138;49.246;9.100;2023-03-03T05:05:47;24.58;;;10.40;;
14118;SDS011;7138;49.246;9.100;2023-03-03T05:08:13;26.50;;;10.98;;
14118;SDS011;7138;49.246;9.100;2023-03-03T05:10:39;21.50;;;10.75;;
14118;SDS011;7138;49.246;9.100;2023-03-03T05:13:05;23.90;;;11.88;;
14118;SDS011;7138;49.246;9.100;2023-03-03T05:15:33;23.02;;;11.40;;
14118;SDS011;7138;49.246;9.100;2023-03-03T05:17:59;23.90;;;11.63;;
14118;SDS011;7138;49.246;9.100;2023-03-03T05:20:25;26.55;;;11.90;;
14118;SDS011;7138;49.246;9.100;2023-03-03T05:22:51;24.55;;;12.40;;
14118;SDS011;7138;49.246;9.100;2023-03-03T05:25:17;21.95;;;11.20;;
14118;SDS011;7138;49.246;9.100;2023-03-03T05:27:44;27.45;;;12.05;;
14118;SDS011;7138;49.246;9.100;2023-03-03T05:30:10;24.52;;;11.93;;
14118;SDS011;7138;49.246;9.100;2023-03-03T05:32:38;26.85;;;12.55;;
14118;SDS011;7138;49.246;9.100;2023-03-03T05:35:04;28.45;;;12.48;;
14118;SDS011;7138;49.246;9.100;2023-03-03T05:37:31;29.08;;;13.05;;
14118;SDS011;7138;49.246;9.100;2023-03-03T05:39:57;24.92;;;12.05;;
14118;SDS011;7138;49.246;9.100;2023-03-03T05:42:22;25.70;;;12.43;;
14118;SDS011;7138;49.246;9.100;2023-03-03T05:44:48;29.38;;;12.68;;
14118;SDS011;7138;49.246;9.100;2023-03-03T05:47:14;24.10;;;11.70;;
14118;SDS011;7138;49.246;9.100;2023-03-03T05:49:41;28.67;;;12.60;;
14118;SDS011;7138;49.246;9.100;2023-03-03T05:52:07;29.83;;;12.65;;
14118;SDS011;7138;49.246;9.100;2023-03-03T05:54:33;25.27;;;11.55;;
14118;SDS011;7138;49.246;9.100;2023-03-03T05:56:59;24.63;;;11.20;;
14118;SDS011;7138;49.246;9.100;2023-03-03T05:59:25;25.02;;;12.57;;
14118;SDS011;7138;49.246;9.100;2023-03-03T06:01:51;23.15;;;11.05;;
14118;SDS011;7138;49.246;9.100;2023-03-03T06:04:17;29.58;;;11.75;;
14118;SDS011;7138;49.246;9.100;2023-03-03T06:06:44;26.77;;;11.75;;
14118;SDS011;7138;49.246;9.100;2023-03-03T06:09:10;28.55;;;11.25;;
14118;SDS011;7138;49.246;9.100;2023-03-03T06:11:35;27.05;;;11.13;;
14118;SDS011;7138;49.246;9.100;2023-03-03T06:14:01;28.05;;;11.80;;
14118;SDS011;7138;49.246;9.100;2023-03-03T06:16:27;21.08;;;11.02;;
14118;SDS011;7138;49.246;9.100;2023-03-03T06:18:53;23.13;;;11.32;;
14118;SDS011;7138;49.246;9.100;2023-03-03T06:21:19;22.20;;;10.88;;
14118;SDS011;7138;49.246;9.100;2023-03-03T06:23:46;24.63;;;11.68;;
14118;SDS011;7138;49.246;9.100;2023-03-03T06:26:12;26.73;;;11.48;;
14118;SDS011;7138;49.246;9.100;2023-03-03T06:28:37;23.23;;;10.68;;
14118;SDS011;7138;49.246;9.100;2023-03-03T06:31:03;26.15;;;11.65;;
14118;SDS011;7138;49.246;9.100;2023-03-03T06:33:29;26.75;;;12.02;;
14118;SDS011;7138;49.246;9.100;2023-03-03T06:35:55;25.13;;;12.35;;
14118;SDS011;7138;49.246;9.100;2023-03-03T06:38:21;22.95;;;12.23;;
14118;SDS011;7138;49.246;9.100;2023-03-03T06:40:48;22.08;;;10.70;;
14118;SDS011;7138;49.246;9.100;2023-03-03T06:43:14;28.05;;;12.27;;
14118;SDS011;7138;49.246;9.100;2023-03-03T06:45:40;23.13;;;11.85;;
14118;SDS011;7138;49.246;9.100;2023-03-03T06:48:07;25.17;;;11.35;;
14118;SDS011;7138;49.246;9.100;2023-03-03T06:50:33;28.08;;;12.15;;
14118;SDS011;7138;49.246;9.100;2023-03-03T06:53:01;24.38;;;12.30;;
14118;SDS011;7138;49.246;9.100;2023-03-03T06:55:35;22.80;;;11.30;;
14118;SDS011;7138;49.246;9.100;2023-03-03T06:58:07;24.33;;;12.55;;
14118;SDS011;7138;49.246;9.100;2023-03-03T07:00:37;26.70;;;12.70;;
14118;SDS011;7138;49.246;9.100;2023-03-03T07:03:06;23.58;;;11.63;;
14118;SDS011;7138;49.246;9.100;2023-03-03T07:05:38;27.20;;;13.23;;
14118;SDS011;7138;49.246;9.100;2023-03-03T07:08:05;34.38;;;14.88;;
14118;SDS011;7138;49.246;9.100;2023-03-03T07:10:37;27.95;;;13.60;;
14118;SDS011;7138;49.246;9.100;2023-03-03T07:13:15;27.17;;;14.13;;
14118;SDS011;7138;49.246;9.100;2023-03-03T07:15:45;23.95;;;12.23;;
14118;SDS011;7138;49.246;9.100;2023-03-03T07:18:21;22.77;;;11.98;;
14118;SDS011;7138;49.246;9.100;2023-03-03T07:21:04;24.23;;;12.25;;
14118;SDS011;7138;49.246;9.100;2023-03-03T07:23:40;27.75;;;12.73;;
14118;SDS011;7138;49.246;9.100;2023-03-03T07:26:08;23.40;;;12.27;;
14118;SDS011;7138;49.246;9.100;2023-03-03T07:28:41;26.27;;;11.70;;
14118;SDS011;7138;49.246;9.100;2023-03-03T07:31:29;24.35;;;12.13;;
14118;SDS011;7138;49.246;9.100;2023-03-03T07:34:00;26.13;;;12.02;;
14118;SDS011;7138;49.246;9.100;2023-03-03T07:36:39;19.25;;;9.52;;
14118;SDS011;7138;49.246;9.100;2023-03-03T07:39:12;24.77;;;12.80;;
14118;SDS011;7138;49.246;9.100;2023-03-03T07:41:51;28.85;;;13.98;;
14118;SDS011;7138;49.246;9.100;2023-03-03T07:44:21;28.40;;;14.40;;
14118;SDS011;7138;49.246;9.100;2023-03-03T07:46:58;30.30;;;13.95;;
14118;SDS011;7138;49.246;9.100;2023-03-03T07:49:46;30.33;;;14.35;;
14118;SDS011;7138;49.246;9.100;2023-03-03T07:52:20;27.88;;;14.32;;
14118;SDS011;7138;49.246;9.100;2023-03-03T07:54:53;30.75;;;15.48;;
14118;SDS011;7138;49.246;9.100;2023-03-03T07:57:22;27.73;;;14.57;;
14118;SDS011;7138;49.246;9.100;2023-03-03T07:59:53;32.03;;;15.00;;
14118;SDS011;7138;49.246;9.100;2023-03-03T08:02:33;35.67;;;16.15;;
14118;SDS011;7138;49.246;9.100;2023-03-03T08:05:20;30.45;;;15.68;;
14118;SDS011;7138;49.246;9.100;2023-03-03T08:07:53;32.60;;;16.42;;
14118;SDS011;7138;49.246;9.100;2023-03-03T08:10:30;35.30;;;15.45;;
14118;SDS011;7138;49.246;9.100;2023-03-03T08:13:08;30.52;;;15.85;;
14118;SDS011;7138;49.246;9.100;2023-03-03T08:15:44;30.52;;;15.30;;
14118;SDS011;7138;49.246;9.100;2023-03-03T08:18:22;30.98;;;16.23;;
14118;SDS011;7138;49.246;9.100;2023-03-03T08:20:52;31.52;;;15.80;;
14118;SDS011;7138;49.246;9.100;2023-03-03T08:23:21;33.05;;;16.85;;
14118;SDS011;7138;49.246;9.100;2023-03-03T08:25:48;37.33;;;17.42;;
14118;SDS011;7138;49.246;9.100;2023-03-03T08:28:15;33.50;;;16.70;;
14118;SDS011;7138;49.246;9.100;2023-03-03T08:30:42;34.20;;;16.77;;
14118;SDS011;7138;49.246;9.100;2023-03-03T08:33:11;34.45;;;17.02;;
14118;SDS011;7138;49.246;9.100;2023-03-03T08:35:38;29.20;;;15.77;;
14118;SDS011;7138;49.246;9.100;2023-03-03T08:38:05;34.42;;;16.73;;
14118;SDS011;7138;49.246;9.100;2023-03-03T08:40:32;33.90;;;17.40;;
14118;SDS011;7138;49.246;9.100;2023-03-03T08:42:59;33.47;;;17.33;;
14118;SDS011;7138;49.246;9.100;2023-03-03T08:45:25;35.30;;;17.83;;
14118;SDS011;7138;49.246;9.100;2023-03-03T08:47:54;33.83;;;18.25;;
14118;SDS011;7138;49.246;9.100;2023-03-03T08:50:20;36.80;;;18.38;;
14118;SDS011;7138;49.246;9.100;2023-03-03T08:52:47;36.47;;;17.52;;
14118;SDS011;7138;49.246;9.100;2023-03-03T08:55:13;37.20;;;18.10;;
14118;SDS011;7138;49.246;9.100;2023-03-03T08:57:39;40.13;;;19.15;;
14118;SDS011;7138;49.246;9.100;2023-03-03T09:00:05;33.65;;;18.20;;
14118;SDS011;7138;49.246;9.100;2023-03-03T09:05:02;33.88;;;17.65;;
14118;SDS011;7138;49.246;9.100;2023-03-03T09:07:29;36.70;;;17.85;;
14118;SDS011;7138;49.246;9.100;2023-03-03T09:09:55;38.17;;;18.55;;
14118;SDS011;7138;49.246;9.100;2023-03-03T09:12:21;40.83;;;19.45;;
14118;SDS011;7138;49.246;9.100;2023-03-03T09:14:54;36.95;;;18.85;;
14118;SDS011;7138;49.246;9.100;2023-03-03T09:17:24;36.63;;;18.85;;
14118;SDS011;7138;49.246;9.100;2023-03-03T09:19:57;38.97;;;19.35;;
14118;SDS011;7138;49.246;9.100;2023-03-03T09:22:46;39.75;;;18.92;;
14118;SDS011;7138;49.246;9.100;2023-03-03T09:25:17;37.83;;;19.13;;
14118;SDS011;7138;49.246;9.100;2023-03-03T09:27:51;35.78;;;17.92;;
14118;SDS011;7138;49.246;9.100;2023-03-03T09:30:26;38.75;;;19.48;;
14118;SDS011;7138;49.246;9.100;2023-03-03T09:33:16;35.63;;;18.75;;
14118;SDS011;7138;49.246;9.100;2023-03-03T09:35:50;36.67;;;19.40;;
14118;SDS011;7138;49.246;9.100;2023-03-03T09:38:24;34.28;;;19.38;;
14118;SDS011;7138;49.246;9.100;2023-03-03T09:40:55;35.78;;;18.17;;
14118;SDS011;7138;49.246;9.100;2023-03-03T09:43:58;38.20;;;19.33;;
14118;SDS011;7138;49.246;9.100;2023-03-03T09:46:49;40.53;;;19.45;;
14118;SDS011;7138;49.246;9.100;2023-03-03T09:49:39;42.88;;;18.75;;
14118;SDS011;7138;49.246;9.100;2023-03-03T09:52:26;34.67;;;19.08;;
14118;SDS011;7138;49.246;9.100;2023-03-03T09:55:08;36.20;;;19.75;;
14118;SDS011;7138;49.246;9.100;2023-03-03T09:57:58;38.33;;;19.77;;
14118;SDS011;7138;49.246;9.100;2023-03-03T10:00:46;39.10;;;18.52;;
14118;SDS011;7138;49.246;9.100;2023-03-03T10:03:45;34.50;;;20.20;;
14118;SDS011;7138;49.246;9.100;2023-03-03T10:06:40;40.67;;;21.15;;
14118;SDS011;7138;49.246;9.100;2023-03-03T10:09:31;40.08;;;21.00;;
14118;SDS011;7138;49.246;9.100;2023-03-03T10:12:12;37.88;;;19.15;;
14118;SDS011;7138;49.246;9.100;2023-03-03T10:14:52;34.70;;;19.20;;
14118;SDS011;7138;49.246;9.100;2023-03-03T10:17:39;37.97;;;19.90;;
14118;SDS011;7138;49.246;9.100;2023-03-03T10:20:21;38.25;;;19.10;;
14118;SDS011;7138;49.246;9.100;2023-03-03T10:23:02;38.17;;;19.05;;
14118;SDS011;7138;49.246;9.100;2023-03-03T10:25:48;36.03;;;19.20;;
14118;SDS011;7138;49.246;9.100;2023-03-03T10:28:32;39.00;;;20.00;;
14118;SDS011;7138;49.246;9.100;2023-03-03T10:31:27;35.53;;;18.48;;
14118;SDS011;7138;49.246;9.100;2023-03-03T10:34:13;39.05;;;20.67;;
14118;SDS011;7138;49.246;9.100;2023-03-03T10:37:12;36.50;;;19.30;;
14118;SDS011;7138;49.246;9.100;2023-03-03T10:39:53;35.05;;;19.30;;
14118;SDS011;7138;49.246;9.100;2023-03-03T10:42:42;35.88;;;19.13;;
14118;SDS011;7138;49.246;9.100;2023-03-03T10:45:55;38.10;;;20.02;;
14118;SDS011;7138;49.246;9.100;2023-03-03T10:48:42;32.20;;;18.48;;
14118;SDS011;7138;49.246;9.100;2023-03-03T10:51:28;35.13;;;19.73;;
14118;SDS011;7138;49.246;9.100;2023-03-03T10:54:11;34.42;;;19.08;;
14118;SDS011;7138;49.246;9.100;2023-03-03T10:56:57;34.22;;;19.58;;
14118;SDS011;7138;49.246;9.100;2023-03-03T10:59:40;32.53;;;19.13;;
14118;SDS011;7138;49.246;9.100;2023-03-03T11:02:27;32.97;;;18.98;;
14118;SDS011;7138;49.246;9.100;2023-03-03T11:05:16;38.22;;;20.08;;
14118;SDS011;7138;49.246;9.100;2023-03-03T11:07:56;37.42;;;20.15;;
14118;SDS011;7138;49.246;9.100;2023-03-03T11:10:29;38.13;;;19.95;;
14118;SDS011;7138;49.246;9.100;2023-03-03T11:13:20;35.33;;;19.20;;
14118;SDS011;7138;49.246;9.100;2023-03-03T11:16:08;35.90;;;20.10;;
14118;SDS011;7138;49.246;9.100;2023-03-03T11:18:52;33.80;;;18.98;;
14118;SDS011;7138;49.246;9.100;2023-03-03T11:21:44;32.33;;;19.20;;
14118;SDS011;7138;49.246;9.100;2023-03-03T11:24:31;38.35;;;20.08;;
14118;SDS011;7138;49.246;9.100;2023-03-03T11:27:18;35.63;;;19.67;;
14118;SDS011;7138;49.246;9.100;2023-03-03T11:30:07;34.65;;;19.45;;
14118;SDS011;7138;49.246;9.100;2023-03-03T11:33:00;31.98;;;18.00;;
14118;SDS011;7138;49.246;9.100;2023-03-03T11:35:37;32.78;;;18.27;;
14118;SDS011;7138;49.246;9.100;2023-03-03T11:40:56;32.80;;;19.73;;
14118;SDS011;7138;49.246;9.100;2023-03-03T11:43:29;39.72;;;20.58;;
14118;SDS011;7138;49.246;9.100;2023-03-03T11:46:02;33.58;;;19.95;;
14118;SDS011;7138;49.246;9.100;2023-03-03T11:48:37;36.22;;;19.70;;
14118;SDS011;7138;49.246;9.100;2023-03-03T11:51:12;34.97;;;19.90;;
14118;SDS011;7138;49.246;9.100;2023-03-03T11:53:49;34.45;;;18.33;;
14118;SDS011;7138;49.246;9.100;2023-03-03T11:56:24;34.33;;;20.35;;
14118;SDS011;7138;49.246;9.100;2023-03-03T11:59:01;34.38;;;20.05;;
14118;SDS011;7138;49.246;9.100;2023-03-03T12:02:01;33.40;;;19.08;;
14118;SDS011;7138;49.246;9.100;2023-03-03T12:04:43;31.50;;;18.75;;
14118;SDS011;7138;49.246;9.100;2023-03-03T12:07:18;32.13;;;17.88;;
14118;SDS011;7138;49.246;9.100;2023-03-03T12:10:06;34.05;;;19.48;;
14118;SDS011;7138;49.246;9.100;2023-03-03T12:12:47;34.05;;;19.40;;
14118;SDS011;7138;49.246;9.100;2023-03-03T12:15:26;30.73;;;17.92;;
14118;SDS011;7138;49.246;9.100;2023-03-03T12:18:13;32.28;;;19.20;;
14118;SDS011;7138;49.246;9.100;2023-03-03T12:21:14;33.20;;;19.70;;
14118;SDS011;7138;49.246;9.100;2023-03-03T12:24:04;32.25;;;18.27;;
14118;SDS011;7138;49.246;9.100;2023-03-03T12:26:49;32.20;;;18.48;;
14118;SDS011;7138;49.246;9.100;2023-03-03T12:29:34;33.60;;;19.63;;
14118;SDS011;7138;49.246;9.100;2023-03-03T12:32:17;34.70;;;18.88;;
14118;SDS011;7138;49.246;9.100;2023-03-03T12:35:01;33.47;;;19.65;;
14118;SDS011;7138;49.246;9.100;2023-03-03T12:37:41;35.08;;;19.52;;
14118;SDS011;7138;49.246;9.100;2023-03-03T12:40:23;34.08;;;19.38;;
14118;SDS011;7138;49.246;9.100;2023-03-03T12:42:56;33.45;;;19.10;;
14118;SDS011;7138;49.246;9.100;2023-03-03T12:45:43;32.22;;;18.95;;
14118;SDS011;7138;49.246;9.100;2023-03-03T12:48:20;31.08;;;17.33;;
14118;SDS011;7138;49.246;9.100;2023-03-03T12:51:00;31.08;;;17.75;;
14118;SDS011;7138;49.246;9.100;2023-03-03T12:53:43;32.63;;;17.75;;
14118;SDS011;7138;49.246;9.100;2023-03-03T12:56:33;31.42;;;18.63;;
14118;SDS011;7138;49.246;9.100;2023-03-03T12:59:08;30.48;;;18.08;;
14118;SDS011;7138;49.246;9.100;2023-03-03T13:01:55;30.35;;;17.55;;
14118;SDS011;7138;49.246;9.100;2023-03-03T13:04:50;29.33;;;18.27;;
14118;SDS011;7138;49.246;9.100;2023-03-03T13:07:27;32.67;;;17.23;;
14118;SDS011;7138;49.246;9.100;2023-03-03T13:10:10;30.13;;;17.38;;
14118;SDS011;7138;49.246;9.100;2023-03-03T13:12:48;30.83;;;17.45;;
14118;SDS011;7138;49.246;9.100;2023-03-03T13:15:21;27.60;;;17.52;;
14118;SDS011;7138;49.246;9.100;2023-03-03T13:17:55;29.65;;;17.75;;
14118;SDS011;7138;49.246;9.100;2023-03-03T13:20:39;27.42;;;17.17;;
14118;SDS011;7138;49.246;9.100;2023-03-03T13:23:15;30.27;;;17.98;;
14118;SDS011;7138;49.246;9.100;2023-03-03T13:25:58;31.70;;;17.80;;
14118;SDS011;7138;49.246;9.100;2023-03-03T13:28:36;33.53;;;17.70;;
14118;SDS011;7138;49.246;9.100;2023-03-03T13:31:07;29.38;;;17.95;;
14118;SDS011;7138;49.246;9.100;2023-03-03T13:33:42;30.98;;;18.73;;
14118;SDS011;7138;49.246;9.100;2023-03-03T13:36:15;29.20;;;17.17;;
14118;SDS011;7138;49.246;9.100;2023-03-03T13:38:45;32.47;;;17.88;;
14118;SDS011;7138;49.246;9.100;2023-03-03T13:41:19;29.02;;;17.60;;
14118;SDS011;7138;49.246;9.100;2023-03-03T13:43:51;27.13;;;17.35;;
14118;SDS011;7138;49.246;9.100;2023-03-03T13:46:27;28.10;;;17.45;;
14118;SDS011;7138;49.246;9.100;2023-03-03T13:49:07;30.15;;;17.67;;
14118;SDS011;7138;49.246;9.100;2023-03-03T13:51:48;26.58;;;16.52;;
14118;SDS011;7138;49.246;9.100;2023-03-03T13:54:31;29.63;;;17.50;;
14118;SDS011;7138;49.246;9.100;2023-03-03T13:57:22;29.30;;;18.17;;
14118;SDS011;7138;49.246;9.100;2023-03-03T14:00:05;34.55;;;18.38;;
14118;SDS011;7138;49.246;9.100;2023-03-03T14:03:02;27.33;;;16.85;;
14118;SDS011;7138;49.246;9.100;2023-03-03T14:06:08;33.30;;;18.20;;
14118;SDS011;7138;49.246;9.100;2023-03-03T14:08:54;30.00;;;17.80;;
14118;SDS011;7138;49.246;9.100;2023-03-03T14:11:48;26.75;;;16.80;;
14118;SDS011;7138;49.246;9.100;2023-03-03T14:14:32;27.80;;;17.25;;
14118;SDS011;7138;49.246;9.100;2023-03-03T14:17:13;30.65;;;18.27;;
14118;SDS011;7138;49.246;9.100;2023-03-03T14:19:56;29.05;;;17.08;;
14118;SDS011;7138;49.246;9.100;2023-03-03T14:22:38;26.27;;;16.05;;
14118;SDS011;7138;49.246;9.100;2023-03-03T14:25:11;27.45;;;17.15;;
14118;SDS011;7138;49.246;9.100;2023-03-03T14:27:40;27.10;;;16.77;;
14118;SDS011;7138;49.246;9.100;2023-03-03T14:30:37;25.65;;;16.17;;
14118;SDS011;7138;49.246;9.100;2023-03-03T14:33:17;26.90;;;16.40;;
14118;SDS011;7138;49.246;9.100;2023-03-03T14:35:59;26.73;;;16.38;;
14118;SDS011;7138;49.246;9.100;2023-03-03T14:38:37;26.40;;;16.83;;
14118;SDS011;7138;49.246;9.100;2023-03-03T14:41:15;27.42;;;16.63;;
14118;SDS011;7138;49.246;9.100;2023-03-03T14:43:45;25.23;;;16.10;;
14118;SDS011;7138;49.246;9.100;2023-03-03T14:46:33;27.88;;;17.60;;
14118;SDS011;7138;49.246;9.100;2023-03-03T14:49:04;33.42;;;17.27;;
14118;SDS011;7138;49.246;9.100;2023-03-03T14:51:40;29.88;;;16.17;;
14118;SDS011;7138;49.246;9.100;2023-03-03T14:54:21;25.05;;;16.98;;
14118;SDS011;7138;49.246;9.100;2023-03-03T14:56:57;25.75;;;16.55;;
14118;SDS011;7138;49.246;9.100;2023-03-03T14:59:31;28.88;;;17.33;;
14118;SDS011;7138;49.246;9.100;2023-03-03T15:02:07;27.05;;;17.48;;
14118;SDS011;7138;49.246;9.100;2023-03-03T15:05:17;28.13;;;17.25;;
14118;SDS011;7138;49.246;9.100;2023-03-03T15:07:47;27.95;;;15.88;;
14118;SDS011;7138;49.246;9.100;2023-03-03T15:10:31;29.15;;;17.08;;
14118;SDS011;7138;49.246;9.100;2023-03-03T15:13:08;27.52;;;16.48;;
14118;SDS011;7138;49.246;9.100;2023-03-03T15:16:08;29.38;;;15.98;;
14118;SDS011;7138;49.246;9.100;2023-03-03T15:18:54;25.52;;;16.27;;
14118;SDS011;7138;49.246;9.100;2023-03-03T15:22:14;24.50;;;15.63;;
14118;SDS011;7138;49.246;9.100;2023-03-03T15:25:02;25.30;;;16.92;;
14118;SDS011;7138;49.246;9.100;2023-03-03T15:27:36;26.35;;;16.27;;